Time;durP1;ratioP1;P1;durP2;ratioP2;P2;SDS_P1;SDS_P2;PMS_P1;PMS_P2;Temp;Humidity;BMP_temperature;BMP_pressure;BME280_temperature;BME280_humidity;BME280_pressure;Samples;Min_cycle;Max_cycle;Signal;HPM_P1;HPM_P2
2022/07/21 00:00:38;;;;;;;12.20;7.75;;;22.90;99.90;;;;;;5107369;28;20059;-64
2022/07/21 00:03:04;;;;;;;10.73;7.13;;;22.80;99.90;;;;;;5107660;28;20419;-64
2022/07/21 00:05:30;;;;;;;10.50;7.35;;;22.80;99.90;;;;;;5108626;28;20062;-65
2022/07/21 00:07:56;;;;;;;13.50;8.20;;;22.80;99.90;;;;;;5107622;28;20375;-64
2022/07/21 00:10:24;;;;;;;14.20;8.27;;;22.80;99.90;;;;;;5109982;28;20057;-65
2022/07/21 00:12:49;;;;;;;11.15;7.82;;;22.80;99.90;;;;;;5105772;28;20071;-64
2022/07/21 00:15:18;;;;;;;16.75;8.77;;;22.70;99.90;;;;;;5106201;28;20047;-65
2022/07/21 00:17:44;;;;;;;13.25;8.00;;;22.70;99.90;;;;;;5099106;28;20047;-64
2022/07/21 00:20:11;;;;;;;11.75;7.75;;;22.70;99.90;;;;;;5102250;28;20085;-65
2022/07/21 00:22:36;;;;;;;11.68;8.20;;;22.60;99.90;;;;;;5107501;28;20108;-65
2022/07/21 00:25:04;;;;;;;13.27;8.77;;;22.60;99.90;;;;;;5108494;28;20056;-65
2022/07/21 00:27:30;;;;;;;14.32;9.35;;;22.60;99.90;;;;;;5104031;28;20035;-65
2022/07/21 00:29:55;;;;;;;16.13;10.05;;;22.60;99.90;;;;;;5106977;28;20062;-65
2022/07/21 00:32:21;;;;;;;12.60;9.75;;;22.60;99.90;;;;;;5107238;28;20152;-65
2022/07/21 00:34:46;;;;;;;13.10;10.45;;;22.50;99.90;;;;;;5107714;28;20036;-65
2022/07/21 00:37:12;;;;;;;14.57;11.10;;;22.50;99.90;;;;;;5105844;28;20509;-64
2022/07/21 00:39:38;;;;;;;15.07;11.05;;;22.50;99.90;;;;;;5108314;28;20043;-65
2022/07/21 00:42:04;;;;;;;14.65;12.10;;;22.50;99.90;;;;;;5105804;28;20540;-65
2022/07/21 00:44:29;;;;;;;15.55;11.98;;;22.50;99.90;;;;;;5106593;28;20479;-64
2022/07/21 00:46:56;;;;;;;15.02;11.80;;;22.40;99.90;;;;;;5102435;28;20058;-65
2022/07/21 00:49:21;;;;;;;17.10;12.43;;;22.40;99.90;;;;;;5107229;28;20043;-65
2022/07/21 00:51:48;;;;;;;20.85;13.30;;;22.40;99.90;;;;;;5104609;28;20051;-64
2022/07/21 00:54:18;;;;;;;18.65;14.85;;;22.40;99.90;;;;;;5095151;28;20141;-64
2022/07/21 00:56:45;;;;;;;19.95;15.60;;;22.40;99.90;;;;;;5107421;28;20043;-64
2022/07/21 00:59:11;;;;;;;16.75;14.95;;;22.30;99.90;;;;;;5103893;28;20044;-64
2022/07/21 01:01:37;;;;;;;20.63;17.10;;;22.30;99.90;;;;;;5104944;28;20108;-64
2022/07/21 01:04:03;;;;;;;19.05;15.40;;;22.30;99.90;;;;;;5105219;28;20106;-64
2022/07/21 01:06:28;;;;;;;20.27;16.60;;;22.30;99.90;;;;;;5104288;28;20040;-65
2022/07/21 01:08:54;;;;;;;18.77;16.23;;;22.30;99.90;;;;;;5103272;28;20101;-65
2022/07/21 01:11:23;;;;;;;20.05;16.70;;;22.30;99.90;;;;;;5108227;28;20089;-65
2022/07/21 01:13:49;;;;;;;21.13;17.67;;;22.20;99.90;;;;;;5106267;28;20047;-65
2022/07/21 01:16:14;;;;;;;20.67;17.63;;;22.20;99.90;;;;;;5105980;28;20035;-65
2022/07/21 01:18:40;;;;;;;23.05;19.73;;;22.20;99.90;;;;;;5107072;28;20039;-65
2022/07/21 01:21:31;;;;;;;22.27;19.40;;;22.20;99.90;;;;;;5105620;28;20128;-65
2022/07/21 01:23:57;;;;;;;22.15;19.73;;;22.20;99.90;;;;;;5100240;28;20047;-65
2022/07/21 01:26:23;;;;;;;22.10;19.80;;;22.20;99.90;;;;;;5107187;28;20058;-65
2022/07/21 01:28:49;;;;;;;23.90;21.38;;;22.20;99.90;;;;;;5104309;28;20036;-65
2022/07/21 01:31:14;;;;;;;23.95;20.35;;;22.20;99.90;;;;;;5105575;28;20045;-65
2022/07/21 01:33:40;;;;;;;23.88;21.25;;;22.20;99.90;;;;;;5106687;28;20043;-66
2022/07/21 01:36:06;;;;;;;22.77;20.30;;;22.20;99.90;;;;;;5104318;28;20049;-65
2022/07/21 01:41:34;;;;;;;25.50;21.90;;;22.20;99.90;;;;;;5107199;28;20093;-65
2022/07/21 01:44:03;;;;;;;26.60;22.23;;;22.10;99.90;;;;;;5104201;28;20458;-65
2022/07/21 01:46:35;;;;;;;24.75;21.98;;;22.10;99.90;;;;;;5103974;28;20043;-66
2022/07/21 01:49:01;;;;;;;29.70;25.50;;;22.10;99.90;;;;;;5103158;28;20379;-66
2022/07/21 01:51:27;;;;;;;30.85;26.38;;;22.10;99.90;;;;;;5090389;28;20042;-66
2022/07/21 01:53:53;;;;;;;29.05;25.95;;;22.10;99.90;;;;;;5103003;28;20138;-65
2022/07/21 01:56:21;;;;;;;31.60;28.40;;;22.10;99.90;;;;;;5095533;28;20032;-66
2022/07/21 01:58:47;;;;;;;30.95;27.75;;;22.00;99.90;;;;;;5092216;28;20083;-65
2022/07/21 02:01:15;;;;;;;31.75;28.42;;;22.00;99.90;;;;;;5097442;28;20043;-65
2022/07/21 02:03:41;;;;;;;31.83;28.60;;;22.00;99.90;;;;;;5104538;28;20040;-65
2022/07/21 02:06:07;;;;;;;31.35;28.25;;;22.00;99.90;;;;;;5106056;28;20113;-65
2022/07/21 02:08:33;;;;;;;33.45;28.67;;;21.90;99.90;;;;;;5101131;28;20044;-65
2022/07/21 02:10:58;;;;;;;31.08;27.85;;;22.00;99.90;;;;;;5109659;28;20512;-66
2022/07/21 02:13:24;;;;;;;31.85;28.50;;;22.00;99.90;;;;;;5108466;28;20520;-65
2022/07/21 02:15:50;;;;;;;32.15;28.75;;;22.00;99.90;;;;;;5088825;28;20787;-66
2022/07/21 02:18:15;;;;;;;32.35;28.27;;;22.00;99.90;;;;;;5105912;28;20035;-66
2022/07/21 02:20:41;;;;;;;32.00;28.17;;;21.90;99.90;;;;;;5111199;28;20520;-66
2022/07/21 02:23:07;;;;;;;32.25;28.83;;;21.90;99.90;;;;;;5109683;28;20047;-65
2022/07/21 02:25:32;;;;;;;32.78;29.25;;;21.90;99.90;;;;;;5106640;28;20354;-65
2022/07/21 02:27:58;;;;;;;34.25;29.75;;;21.80;99.90;;;;;;5107979;28;20089;-65
2022/07/21 02:30:24;;;;;;;32.90;29.50;;;21.90;99.90;;;;;;5105275;28;20046;-65
2022/07/21 02:32:49;;;;;;;32.72;29.33;;;21.80;99.90;;;;;;5108593;28;20378;-65
2022/07/21 02:35:15;;;;;;;33.17;29.67;;;21.80;99.90;;;;;;5110053;28;20031;-66
2022/07/21 02:37:40;;;;;;;31.80;28.25;;;21.80;99.90;;;;;;5108753;28;20445;-66
2022/07/21 02:40:07;;;;;;;32.83;29.38;;;21.80;99.90;;;;;;5101307;28;20070;-65
2022/07/21 02:42:32;;;;;;;33.53;29.60;;;21.80;99.90;;;;;;5106993;28;20036;-65
2022/07/21 02:44:58;;;;;;;33.10;29.67;;;21.90;99.90;;;;;;5110192;28;20043;-65
2022/07/21 02:47:23;;;;;;;33.10;29.70;;;21.80;99.90;;;;;;5108016;28;20044;-65
2022/07/21 02:49:49;;;;;;;31.67;28.48;;;21.80;99.90;;;;;;5109696;28;20122;-65
2022/07/21 02:52:15;;;;;;;32.38;28.98;;;21.80;99.90;;;;;;5108749;28;20036;-65
2022/07/21 02:54:40;;;;;;;32.92;29.52;;;21.80;99.90;;;;;;5109255;28;20043;-64
2022/07/21 02:57:06;;;;;;;32.70;29.23;;;21.70;99.90;;;;;;5105495;28;20050;-64
2022/07/21 02:59:31;;;;;;;31.00;27.65;;;21.70;99.90;;;;;;5109714;28;20032;-65
2022/07/21 03:01:57;;;;;;;31.88;28.50;;;21.70;99.90;;;;;;5093822;28;20130;-65
2022/07/21 03:04:22;;;;;;;30.65;27.40;;;21.70;99.90;;;;;;5110333;28;20044;-64
2022/07/21 03:06:48;;;;;;;29.60;26.50;;;21.60;99.90;;;;;;5105591;28;20040;-66
2022/07/21 03:09:14;;;;;;;30.88;27.50;;;21.60;99.90;;;;;;5108169;28;20095;-65
2022/07/21 03:11:39;;;;;;;31.58;26.25;;;21.50;99.90;;;;;;5108996;28;20036;-65
2022/07/21 03:14:05;;;;;;;27.20;24.27;;;21.60;99.90;;;;;;5109771;28;20035;-65
2022/07/21 03:16:31;;;;;;;28.77;25.77;;;21.50;99.90;;;;;;5102382;28;20115;-66
2022/07/21 03:18:56;;;;;;;28.98;25.83;;;21.50;99.90;;;;;;5107477;28;20059;-66
2022/07/21 03:21:22;;;;;;;26.63;23.73;;;21.50;99.90;;;;;;5109593;28;20489;-66
2022/07/21 03:23:47;;;;;;;24.95;22.40;;;21.50;99.90;;;;;;5107359;28;20113;-66
2022/07/21 03:26:14;;;;;;;25.38;22.67;;;21.50;99.90;;;;;;5105411;28;20054;-66
2022/07/21 03:28:42;;;;;;;26.52;23.67;;;21.40;99.90;;;;;;5108932;28;20082;-66
2022/07/21 03:31:07;;;;;;;25.30;22.65;;;21.40;99.90;;;;;;5103029;28;20449;-66
2022/07/21 03:33:33;;;;;;;24.48;21.92;;;21.40;99.90;;;;;;5102124;28;20558;-66
2022/07/21 03:35:59;;;;;;;23.65;21.10;;;21.40;99.90;;;;;;5099238;28;20194;-66
2022/07/21 03:38:25;;;;;;;24.13;21.20;;;21.40;99.90;;;;;;5109133;28;20042;-66
2022/07/21 03:40:51;;;;;;;22.35;19.83;;;21.40;99.90;;;;;;5109391;28;20116;-66
2022/07/21 03:43:17;;;;;;;24.55;21.85;;;21.40;99.90;;;;;;5107232;27;20035;-66
2022/07/21 03:45:43;;;;;;;22.63;20.15;;;21.30;99.90;;;;;;5102272;28;20057;-66
2022/07/21 03:48:09;;;;;;;25.63;21.17;;;21.30;99.90;;;;;;5098918;28;20379;-66
2022/07/21 03:50:37;;;;;;;22.98;20.60;;;21.30;99.90;;;;;;5100415;28;20039;-66
2022/07/21 03:53:03;;;;;;;21.90;19.30;;;21.30;99.90;;;;;;5104780;28;20108;-69
2022/07/21 03:55:29;;;;;;;24.17;21.67;;;21.30;99.90;;;;;;5108662;28;20058;-68
2022/07/21 03:58:00;;;;;;;21.27;18.95;;;21.30;99.90;;;;;;5109543;28;20040;-67
2022/07/21 04:00:35;;;;;;;22.27;19.70;;;21.30;99.90;;;;;;5099399;28;20123;-65
2022/07/21 04:03:01;;;;;;;21.27;18.92;;;21.30;99.90;;;;;;5108900;28;20081;-66
2022/07/21 04:05:27;;;;;;;23.33;20.45;;;21.30;99.90;;;;;;5108107;28;20051;-65
2022/07/21 04:07:54;;;;;;;22.48;19.73;;;21.30;99.90;;;;;;5110448;27;20123;-65
2022/07/21 04:10:24;;;;;;;23.83;21.33;;;21.30;99.90;;;;;;5110189;28;20059;-65
2022/07/21 04:12:50;;;;;;;24.73;22.02;;;21.30;99.90;;;;;;5107192;28;20514;-65
2022/07/21 04:15:17;;;;;;;26.85;23.33;;;21.30;99.90;;;;;;5111265;27;20378;-65
2022/07/21 04:17:43;;;;;;;25.67;22.98;;;21.30;99.90;;;;;;5110082;28;20040;-65
2022/07/21 04:20:10;;;;;;;24.60;22.02;;;21.30;99.90;;;;;;5109419;28;20427;-65
2022/07/21 04:22:36;;;;;;;24.20;21.80;;;21.30;99.90;;;;;;5109812;28;20494;-65
2022/07/21 04:25:04;;;;;;;27.10;23.40;;;21.40;99.90;;;;;;5107699;28;20104;-65
2022/07/21 04:27:30;;;;;;;27.95;24.17;;;21.30;99.90;;;;;;5109153;28;20050;-65
2022/07/21 04:29:56;;;;;;;27.10;24.27;;;21.40;99.90;;;;;;5107468;28;20394;-66
2022/07/21 04:32:22;;;;;;;25.35;22.75;;;21.40;99.90;;;;;;5106267;28;20055;-65
2022/07/21 04:34:47;;;;;;;25.70;23.13;;;21.40;99.90;;;;;;5108139;28;20059;-65
2022/07/21 04:37:13;;;;;;;27.00;24.20;;;21.40;99.90;;;;;;5090043;28;20356;-65
2022/07/21 04:39:38;;;;;;;25.73;23.08;;;21.40;99.90;;;;;;5090677;28;20189;-65
2022/07/21 04:42:04;;;;;;;25.92;23.17;;;21.50;99.90;;;;;;5101861;28;20070;-65
2022/07/21 04:44:30;;;;;;;25.73;23.02;;;21.50;99.90;;;;;;5107652;28;20051;-65
2022/07/21 04:46:55;;;;;;;27.13;24.23;;;21.50;99.90;;;;;;5097261;28;20048;-66
2022/07/21 04:49:21;;;;;;;26.52;23.73;;;21.60;99.90;;;;;;5108519;28;20031;-65
2022/07/21 04:51:46;;;;;;;26.52;23.67;;;21.60;99.90;;;;;;5102016;28;20056;-64
2022/07/21 04:54:15;;;;;;;25.00;22.25;;;21.70;99.90;;;;;;5102263;28;20040;-66
2022/07/21 04:56:41;;;;;;;23.85;21.40;;;21.80;99.90;;;;;;5099890;28;20494;-65
2022/07/21 04:59:07;;;;;;;24.80;22.02;;;21.90;99.90;;;;;;5108024;28;20071;-65
2022/07/21 05:01:33;;;;;;;23.20;20.80;;;21.90;99.90;;;;;;5105709;28;20136;-65
2022/07/21 05:03:58;;;;;;;23.48;21.08;;;21.90;99.90;;;;;;5108235;28;20047;-65
2022/07/21 05:06:25;;;;;;;23.75;21.13;;;21.90;99.90;;;;;;5107978;28;20475;-65
2022/07/21 05:08:51;;;;;;;22.05;19.85;;;22.00;99.90;;;;;;5106812;28;20491;-65
2022/07/21 05:11:16;;;;;;;21.08;18.77;;;22.10;99.90;;;;;;5106583;28;20051;-64
2022/07/21 05:13:42;;;;;;;21.80;19.45;;;22.10;99.90;;;;;;5099396;28;20460;-64
2022/07/21 05:16:07;;;;;;;20.98;18.67;;;22.20;99.90;;;;;;5085894;28;20051;-64
2022/07/21 05:18:33;;;;;;;20.45;18.38;;;22.30;99.90;;;;;;5103473;28;20184;-64
2022/07/21 05:20:59;;;;;;;20.17;18.00;;;22.30;99.90;;;;;;5106426;28;20172;-64
2022/07/21 05:23:24;;;;;;;19.92;17.83;;;22.20;99.90;;;;;;5108128;28;20055;-64
2022/07/21 05:25:50;;;;;;;18.05;16.15;;;22.20;99.90;;;;;;5107523;28;20159;-65
2022/07/21 05:28:15;;;;;;;20.65;18.55;;;22.20;99.90;;;;;;5105247;28;20083;-64
2022/07/21 05:30:41;;;;;;;18.27;16.27;;;22.20;99.90;;;;;;5106081;28;20052;-64
2022/07/21 05:33:07;;;;;;;18.45;16.60;;;22.10;99.90;;;;;;5105272;28;20039;-64
2022/07/21 05:35:33;;;;;;;18.65;16.63;;;22.10;99.90;;;;;;5107123;28;20139;-65
2022/07/21 05:37:59;;;;;;;18.33;16.45;;;22.10;99.90;;;;;;5101125;28;20040;-65
2022/07/21 05:40:24;;;;;;;19.42;17.33;;;22.20;99.90;;;;;;5107777;28;20040;-64
2022/07/21 05:42:50;;;;;;;19.30;16.55;;;22.10;99.90;;;;;;5108989;28;20104;-65
2022/07/21 05:45:16;;;;;;;19.67;17.67;;;22.10;99.90;;;;;;5110658;28;20035;-65
2022/07/21 05:47:41;;;;;;;19.55;17.48;;;22.20;99.90;;;;;;5111206;28;20051;-65
2022/07/21 05:50:08;;;;;;;19.17;16.85;;;22.10;99.90;;;;;;5095505;28;20120;-64
2022/07/21 05:52:34;;;;;;;19.92;17.25;;;22.20;99.90;;;;;;5110563;28;20227;-64
2022/07/21 05:55:00;;;;;;;19.45;17.45;;;22.30;99.90;;;;;;5112284;28;20043;-65
2022/07/21 05:57:26;;;;;;;18.80;16.80;;;22.20;99.90;;;;;;5110288;28;20211;-63
2022/07/21 05:59:51;;;;;;;19.98;17.30;;;22.20;99.90;;;;;;5111109;28;20122;-63
2022/07/21 06:02:17;;;;;;;19.73;17.63;;;22.10;99.90;;;;;;5110154;28;20369;-62
2022/07/21 06:04:42;;;;;;;20.50;18.40;;;22.00;99.90;;;;;;5110349;28;20104;-63
2022/07/21 06:07:08;;;;;;;20.00;17.92;;;22.00;99.90;;;;;;5110762;28;20078;-63
2022/07/21 06:09:33;;;;;;;21.50;18.80;;;21.90;99.90;;;;;;5112779;28;20031;-63
2022/07/21 06:11:59;;;;;;;20.63;18.40;;;21.80;99.90;;;;;;5110557;28;20039;-63
2022/07/21 06:14:25;;;;;;;23.20;18.35;;;21.80;99.90;;;;;;5112161;28;20091;-63
2022/07/21 06:16:51;;;;;;;21.05;18.23;;;21.90;99.90;;;;;;5110282;28;20074;-64
2022/07/21 06:19:16;;;;;;;21.20;18.00;;;21.90;99.90;;;;;;5110595;28;20050;-63
2022/07/21 06:21:42;;;;;;;21.52;18.48;;;22.00;99.90;;;;;;5110597;28;20047;-63
2022/07/21 06:24:08;;;;;;;21.88;19.58;;;22.20;99.90;;;;;;5110804;28;20047;-63
2022/07/21 06:26:34;;;;;;;21.52;18.95;;;22.30;99.90;;;;;;5110439;28;20494;-63
2022/07/21 06:29:00;;;;;;;22.15;19.23;;;22.40;99.90;;;;;;5110879;28;20050;-63
2022/07/21 06:31:25;;;;;;;22.17;19.52;;;22.50;99.90;;;;;;5110956;28;20095;-64
2022/07/21 06:33:51;;;;;;;21.75;19.45;;;22.50;99.90;;;;;;5109913;28;20075;-64
2022/07/21 06:36:17;;;;;;;25.88;21.08;;;22.60;99.90;;;;;;5111111;28;20040;-64
2022/07/21 06:38:44;;;;;;;24.10;21.17;;;22.70;99.90;;;;;;5110564;28;20206;-64
2022/07/21 06:41:10;;;;;;;22.38;20.10;;;22.60;99.90;;;;;;5109636;28;20050;-64
2022/07/21 06:43:36;;;;;;;22.65;20.08;;;22.70;99.90;;;;;;5111279;28;20040;-64
2022/07/21 06:46:01;;;;;;;25.92;21.55;;;22.70;99.90;;;;;;5104218;28;20131;-64
2022/07/21 06:48:27;;;;;;;24.95;22.15;;;22.70;99.90;;;;;;5099625;28;20075;-64
2022/07/21 06:50:54;;;;;;;25.58;21.95;;;22.70;99.90;;;;;;5109326;28;20500;-65
2022/07/21 06:53:20;;;;;;;24.60;21.45;;;22.70;99.90;;;;;;5110971;28;20047;-64
2022/07/21 06:55:45;;;;;;;26.02;22.52;;;22.70;99.90;;;;;;5111052;28;20132;-65
2022/07/21 06:58:17;;;;;;;25.60;22.02;;;22.60;99.90;;;;;;5109118;28;20139;-65
2022/07/21 07:00:44;;;;;;;27.98;23.73;;;22.80;99.90;;;;;;5109822;28;20483;-63
2022/07/21 07:03:09;;;;;;;27.65;23.50;;;22.80;99.90;;;;;;5109533;28;20044;-62
2022/07/21 07:05:35;;;;;;;28.38;23.52;;;22.80;99.90;;;;;;5110870;28;20433;-63
2022/07/21 07:08:02;;;;;;;25.73;22.95;;;22.80;99.90;;;;;;5109782;28;20100;-64
2022/07/21 07:10:28;;;;;;;27.88;23.55;;;22.80;99.90;;;;;;5111572;28;20039;-64
2022/07/21 07:12:54;;;;;;;27.92;23.65;;;22.80;99.90;;;;;;5110324;28;20044;-63
2022/07/21 07:15:22;;;;;;;28.58;24.20;;;22.80;99.90;;;;;;5108905;28;20055;-63
2022/07/21 07:17:48;;;;;;;28.20;23.15;;;22.70;99.90;;;;;;5109635;28;20135;-65
2022/07/21 07:20:13;;;;;;;29.42;25.98;;;22.60;99.90;;;;;;5110614;28;20130;-63
2022/07/21 07:22:39;;;;;;;29.25;25.90;;;22.70;99.90;;;;;;5110047;28;20103;-64
2022/07/21 07:25:05;;;;;;;30.17;26.48;;;22.80;99.90;;;;;;5096784;28;20526;-64
2022/07/21 07:27:31;;;;;;;29.92;25.83;;;22.80;99.90;;;;;;5107150;28;20032;-63
2022/07/21 07:29:56;;;;;;;30.83;26.67;;;22.80;99.90;;;;;;5108589;28;20054;-63
2022/07/21 07:32:22;;;;;;;31.52;27.77;;;22.90;99.90;;;;;;5109678;28;20039;-63
2022/07/21 07:34:48;;;;;;;33.20;27.25;;;22.90;99.90;;;;;;5110651;28;20121;-65
2022/07/21 07:37:13;;;;;;;30.30;26.92;;;22.80;99.90;;;;;;5108730;28;20185;-63
2022/07/21 07:39:40;;;;;;;30.13;26.90;;;22.90;99.90;;;;;;5110752;28;20091;-63
2022/07/21 07:42:06;;;;;;;30.50;27.20;;;23.00;99.90;;;;;;5109174;28;20039;-64
2022/07/21 07:44:32;;;;;;;29.95;26.67;;;23.00;99.90;;;;;;5110993;28;20047;-63
2022/07/21 07:46:58;;;;;;;31.67;28.02;;;23.00;99.90;;;;;;5105861;28;20546;-63
2022/07/21 07:49:24;;;;;;;30.15;26.38;;;23.10;99.90;;;;;;5109825;28;20344;-64
2022/07/21 07:51:49;;;;;;;30.27;26.75;;;23.10;99.90;;;;;;5108440;28;20050;-64
2022/07/21 07:54:15;;;;;;;30.83;27.27;;;23.20;99.90;;;;;;5110354;28;20442;-63
2022/07/21 07:56:41;;;;;;;32.53;27.70;;;23.50;99.90;;;;;;5107916;28;20135;-64
2022/07/21 07:59:08;;;;;;;30.30;27.08;;;23.70;99.90;;;;;;5109473;28;20055;-63
2022/07/21 08:01:33;;;;;;;28.77;25.65;;;23.90;99.90;;;;;;5108725;28;20104;-64
2022/07/21 08:03:59;;;;;;;32.22;27.00;;;24.00;99.90;;;;;;5108959;28;20071;-63
2022/07/21 08:06:24;;;;;;;32.10;27.65;;;23.90;99.90;;;;;;5108425;28;20036;-63
2022/07/21 08:08:50;;;;;;;33.75;29.48;;;23.90;99.90;;;;;;5108587;28;20040;-63
2022/07/21 08:11:16;;;;;;;34.65;29.45;;;23.90;99.90;;;;;;5108369;28;20039;-64
2022/07/21 08:13:41;;;;;;;36.45;31.20;;;23.80;99.90;;;;;;5109527;28;20035;-63
2022/07/21 08:16:07;;;;;;;37.25;31.83;;;23.80;99.90;;;;;;5107600;28;20104;-64
2022/07/21 08:18:33;;;;;;;37.25;30.60;;;23.90;99.90;;;;;;5106431;28;20122;-64
2022/07/21 08:20:59;;;;;;;35.92;31.08;;;23.80;99.90;;;;;;5108476;28;20133;-64
2022/07/21 08:23:24;;;;;;;35.30;31.20;;;23.80;99.90;;;;;;5108777;28;20062;-64
2022/07/21 08:25:50;;;;;;;33.50;29.70;;;23.80;99.90;;;;;;5108235;28;20159;-63
2022/07/21 08:28:16;;;;;;;36.78;30.83;;;23.90;99.90;;;;;;5108417;28;20043;-63
2022/07/21 08:30:42;;;;;;;32.08;28.48;;;24.00;99.90;;;;;;5107157;28;20075;-63
2022/07/21 08:33:07;;;;;;;31.63;28.20;;;24.30;99.90;;;;;;5107356;28;20047;-63
2022/07/21 08:35:34;;;;;;;31.67;25.48;;;24.40;99.90;;;;;;5109391;28;20097;-64
2022/07/21 08:38:02;;;;;;;32.97;27.13;;;24.60;99.90;;;;;;5107866;28;20355;-63
2022/07/21 08:40:29;;;;;;;33.67;27.48;;;24.90;99.90;;;;;;5109068;28;20103;-63
2022/07/21 08:42:55;;;;;;;31.95;26.95;;;25.00;99.90;;;;;;5107860;28;20062;-63
2022/07/21 08:45:22;;;;;;;30.08;26.58;;;25.20;99.90;;;;;;5107546;28;20044;-63
2022/07/21 08:47:54;;;;;;;28.08;23.60;;;25.30;99.90;;;;;;5107882;28;20050;-64
2022/07/21 08:50:22;;;;;;;28.42;24.05;;;25.40;99.90;;;;;;5108687;28;20091;-64
2022/07/21 08:52:48;;;;;;;27.50;22.88;;;25.60;99.90;;;;;;5106752;28;20054;-63
2022/07/21 08:55:14;;;;;;;28.90;24.60;;;25.70;99.90;;;;;;5108623;28;20043;-64
2022/07/21 08:57:40;;;;;;;27.67;23.88;;;25.90;99.90;;;;;;5107864;28;20040;-63
2022/07/21 09:00:10;;;;;;;25.70;21.70;;;26.10;99.90;;;;;;5108504;28;20071;-63
2022/07/21 09:02:40;;;;;;;25.92;21.40;;;26.30;99.90;;;;;;5107722;28;20144;-63
2022/07/21 09:05:08;;;;;;;24.35;21.17;;;26.20;99.90;;;;;;5107864;28;20036;-63
2022/07/21 09:07:53;;;;;;;25.90;20.55;;;26.40;99.90;;;;;;5105844;28;20071;-64
2022/07/21 09:10:24;;;;;;;21.60;19.13;;;26.50;99.90;;;;;;5107391;28;20351;-64
2022/07/21 09:12:55;;;;;;;24.63;20.13;;;26.50;99.90;;;;;;5107852;28;20052;-63
2022/07/21 09:15:23;;;;;;;26.00;20.63;;;26.70;99.90;;;;;;5101838;28;20035;-65
2022/07/21 09:18:12;;;;;;;23.42;20.25;;;26.60;99.90;;;;;;5103106;28;20119;-64
2022/07/21 09:20:47;;;;;;;21.10;18.50;;;26.40;99.90;;;;;;5108683;28;20180;-64
2022/07/21 09:23:15;;;;;;;22.90;19.80;;;26.40;99.90;;;;;;5106860;28;20044;-63
2022/07/21 09:25:47;;;;;;;26.10;20.75;;;26.40;99.90;;;;;;5107913;28;20043;-63
2022/07/21 09:28:25;;;;;;;22.63;19.30;;;26.40;99.90;;;;;;5106794;28;20040;-64
2022/07/21 09:30:57;;;;;;;23.75;20.67;;;26.40;99.70;;;;;;5107107;28;20111;-64
2022/07/21 09:33:27;;;;;;;22.98;20.48;;;26.40;99.90;;;;;;5108735;28;20541;-64
2022/07/21 09:36:14;;;;;;;27.05;20.25;;;26.20;99.90;;;;;;5107053;28;20067;-64
2022/07/21 09:38:49;;;;;;;20.60;18.27;;;26.00;99.90;;;;;;5100494;27;20048;-64
2022/07/21 09:41:20;;;;;;;21.00;18.23;;;25.90;99.80;;;;;;5108051;28;20048;-64
2022/07/21 09:43:54;;;;;;;22.70;17.55;;;25.70;99.90;;;;;;5105551;28;20044;-64
2022/07/21 09:46:25;;;;;;;22.45;17.85;;;25.70;99.70;;;;;;5107544;28;20040;-64
2022/07/21 09:48:53;;;;;;;24.85;19.20;;;25.60;99.90;;;;;;5106656;28;20044;-64
2022/07/21 09:51:32;;;;;;;26.27;22.35;;;25.70;99.90;;;;;;5106076;28;20348;-64
2022/07/21 09:54:12;;;;;;;28.88;22.98;;;25.60;99.90;;;;;;5108208;28;20055;-64
2022/07/21 09:56:40;;;;;;;27.65;24.70;;;25.70;99.90;;;;;;5107233;28;20043;-64
2022/07/21 09:59:08;;;;;;;27.52;24.20;;;25.50;99.90;;;;;;5106997;28;20493;-64
2022/07/21 10:01:36;;;;;;;26.92;24.00;;;25.60;99.90;;;;;;5106127;28;20047;-64
2022/07/21 10:04:03;;;;;;;26.50;23.42;;;25.50;99.90;;;;;;5106610;28;20055;-63
2022/07/21 10:06:32;;;;;;;28.80;25.80;;;25.70;99.90;;;;;;5107247;28;20039;-64
2022/07/21 10:09:01;;;;;;;30.42;26.77;;;25.70;99.90;;;;;;5107648;28;20062;-63
2022/07/21 10:11:27;;;;;;;30.55;27.27;;;25.70;99.90;;;;;;5106244;28;20050;-65
2022/07/21 10:13:53;;;;;;;31.23;27.95;;;25.50;99.90;;;;;;5107999;28;20040;-64
2022/07/21 10:16:19;;;;;;;33.38;29.83;;;25.50;99.90;;;;;;5107160;28;20044;-64
2022/07/21 10:18:57;;;;;;;30.85;27.70;;;25.40;99.90;;;;;;5106601;28;20040;-64
2022/07/21 10:21:41;;;;;;;33.33;29.90;;;25.20;99.90;;;;;;5108068;28;20046;-64
2022/07/21 10:24:10;;;;;;;33.53;29.88;;;25.20;99.90;;;;;;5107516;28;20161;-63
2022/07/21 10:26:36;;;;;;;27.90;24.80;;;25.10;99.90;;;;;;5107416;28;20113;-63
2022/07/21 10:29:02;;;;;;;27.77;24.73;;;25.10;99.90;;;;;;5107470;28;20055;-63
2022/07/21 10:31:28;;;;;;;27.40;24.40;;;25.20;99.90;;;;;;5106320;28;20036;-63
2022/07/21 10:33:55;;;;;;;27.52;23.77;;;25.10;99.90;;;;;;5111649;28;20039;-63
2022/07/21 10:36:26;;;;;;;27.90;24.98;;;25.10;99.90;;;;;;5109827;28;20055;-64
2022/07/21 10:39:10;;;;;;;28.13;25.13;;;25.00;99.90;;;;;;5109852;28;20044;-63
2022/07/21 10:41:41;;;;;;;27.65;24.38;;;25.00;99.90;;;;;;5111301;28;20442;-63
2022/07/21 10:44:28;;;;;;;25.50;21.45;;;25.10;99.90;;;;;;5111512;28;20473;-63
2022/07/21 10:47:07;;;;;;;24.80;21.17;;;25.10;99.90;;;;;;5109056;28;20096;-63
2022/07/21 10:49:56;;;;;;;26.50;22.30;;;25.10;99.90;;;;;;5110483;28;20057;-64
2022/07/21 10:52:34;;;;;;;24.90;20.63;;;25.00;99.90;;;;;;5108407;28;20031;-63
2022/07/21 10:55:28;;;;;;;23.90;19.55;;;24.90;99.90;;;;;;5111258;28;20154;-63
2022/07/21 10:58:23;;;;;;;22.63;18.40;;;24.80;99.90;;;;;;5110027;28;20035;-65
2022/07/21 11:00:50;;;;;;;;;;;24.80;99.90;;;;;;5107673;28;20052;-62
2022/07/21 11:03:23;;;;;;;18.77;16.77;;;24.80;99.90;;;;;;5110593;28;19926;-63
2022/07/21 11:06:25;;;;;;;20.40;17.55;;;24.80;99.90;;;;;;5109736;28;20122;-65
2022/07/21 11:09:09;;;;;;;22.60;18.17;;;25.10;99.90;;;;;;5110935;28;20136;-63
2022/07/21 11:11:38;;;;;;;22.17;18.08;;;25.20;99.90;;;;;;5110663;28;20415;-64
2022/07/21 11:14:17;;;;;;;23.30;18.60;;;25.10;99.90;;;;;;5108956;28;20039;-63
2022/07/21 11:16:43;;;;;;;21.75;18.60;;;24.90;99.90;;;;;;5109400;28;20083;-64
2022/07/21 11:19:30;;;;;;;21.33;18.35;;;24.80;99.90;;;;;;5109187;28;20079;-64
2022/07/21 11:21:57;;;;;;;22.00;17.92;;;24.70;99.90;;;;;;5111528;28;20093;-64
2022/07/21 11:24:25;;;;;;;22.17;19.83;;;24.80;99.90;;;;;;5111492;28;20057;-64
2022/07/21 11:27:15;;;;;;;23.25;20.65;;;24.80;99.90;;;;;;5109019;28;20066;-64
2022/07/21 11:29:43;;;;;;;26.08;22.05;;;24.70;99.90;;;;;;5101012;28;20144;-65
2022/07/21 11:32:09;;;;;;;25.48;22.73;;;24.60;99.90;;;;;;5107644;28;20063;-64
2022/07/21 11:34:42;;;;;;;25.15;22.35;;;24.30;99.90;;;;;;5109243;28;20031;-64
2022/07/21 11:37:09;;;;;;;26.52;22.52;;;24.20;99.90;;;;;;5107840;28;20083;-64
2022/07/21 11:39:35;;;;;;;24.73;21.70;;;24.10;99.90;;;;;;5110236;28;20035;-64
2022/07/21 11:42:06;;;;;;;26.63;23.80;;;23.90;99.90;;;;;;5108786;28;20230;-63
2022/07/21 11:44:33;;;;;;;28.02;22.48;;;23.60;99.90;;;;;;5109426;28;20142;-64
2022/07/21 11:47:01;;;;;;;27.52;24.17;;;23.40;99.90;;;;;;5108365;28;20100;-63
2022/07/21 11:49:27;;;;;;;27.05;23.92;;;23.30;99.90;;;;;;5108786;28;20114;-63
2022/07/21 11:51:56;;;;;;;15.38;13.27;;;23.10;99.90;;;;;;5107678;28;20062;-62
2022/07/21 11:54:29;;;;;;;13.23;11.10;;;22.90;99.90;;;;;;5109785;28;20570;-63
2022/07/21 11:56:57;;;;;;;13.43;11.57;;;22.80;99.90;;;;;;5107248;28;20344;-63
2022/07/21 11:59:23;;;;;;;13.55;11.38;;;22.80;99.90;;;;;;5109805;28;20388;-63
2022/07/21 12:01:50;;;;;;;13.95;10.77;;;22.80;99.90;;;;;;5107316;28;20139;-63
2022/07/21 12:04:29;;;;;;;14.00;12.13;;;23.00;99.90;;;;;;5108505;28;20041;-62
2022/07/21 12:06:55;;;;;;;13.07;11.10;;;23.10;99.90;;;;;;5108557;28;20043;-64
2022/07/21 12:09:21;;;;;;;14.95;12.30;;;23.10;99.90;;;;;;5108909;28;20130;-63
2022/07/21 12:11:47;;;;;;;14.57;12.35;;;23.20;99.90;;;;;;5107444;28;20172;-64
2022/07/21 12:14:13;;;;;;;14.57;13.02;;;23.30;99.90;;;;;;5109990;28;20081;-63
2022/07/21 12:16:53;;;;;;;13.80;12.30;;;23.20;99.90;;;;;;5107093;28;20067;-63
2022/07/21 12:19:20;;;;;;;14.13;12.57;;;23.20;99.90;;;;;;5109668;28;20120;-63
2022/07/21 12:21:51;;;;;;;17.75;14.38;;;23.20;99.90;;;;;;5107495;28;20127;-64
2022/07/21 12:24:18;;;;;;;14.43;12.65;;;23.10;99.90;;;;;;5108890;28;20382;-63
2022/07/21 12:26:44;;;;;;;16.75;14.55;;;23.00;99.90;;;;;;5108198;28;20040;-63
2022/07/21 12:29:23;;;;;;;16.88;13.05;;;23.00;99.90;;;;;;5109298;28;20458;-63
2022/07/21 12:31:49;;;;;;;11.55;7.10;;;22.80;99.90;;;;;;5106172;27;20040;-63
2022/07/21 12:34:17;;;;;;;8.90;6.10;;;22.80;99.90;;;;;;5109303;28;20048;-62